sensor_id;sensor_type;location;lat;lon;timestamp;pressure;altitude;pressure_sealevel;temperature;humidity
57900;BME280;60605;53.716;19.940;2024-03-02T00:04:36;100068.82;;;8.15;100.00
57900;BME280;60605;53.716;19.940;2024-03-02T00:09:40;100067.27;;;8.15;100.00
57900;BME280;60605;53.716;19.940;2024-03-02T00:14:44;100058.42;;;8.14;100.00
57900;BME280;60605;53.716;19.940;2024-03-02T00:19:47;100052.54;;;8.13;100.00
57900;BME280;60605;53.716;19.940;2024-03-02T00:24:50;100049.30;;;8.11;100.00
57900;BME280;60605;53.716;19.940;2024-03-02T00:29:54;100053.80;;;8.09;100.00
57900;BME280;60605;53.716;19.940;2024-03-02T00:35:00;100046.23;;;8.06;100.00
57900;BME280;60605;53.716;19.940;2024-03-02T00:40:04;100046.84;;;8.03;100.00
57900;BME280;60605;53.716;19.940;2024-03-02T00:45:08;100047.98;;;8.02;100.00
57900;BME280;60605;53.716;19.940;2024-03-02T00:50:13;100047.17;;;8.02;100.00
57900;BME280;60605;53.716;19.940;2024-03-02T00:55:28;100052.32;;;8.02;100.00
57900;BME280;60605;53.716;19.940;2024-03-02T01:00:32;100051.44;;;8.02;100.00
57900;BME280;60605;53.716;19.940;2024-03-02T01:05:35;100044.92;;;8.01;100.00
57900;BME280;60605;53.716;19.940;2024-03-02T01:10:38;100044.11;;;8.00;100.00
57900;BME280;60605;53.716;19.940;2024-03-02T01:15:42;100040.58;;;8.00;100.00
57900;BME280;60605;53.716;19.940;2024-03-02T01:20:46;100031.45;;;7.99;100.00
57900;BME280;60605;53.716;19.940;2024-03-02T01:25:50;100023.17;;;7.98;100.00
57900;BME280;60605;53.716;19.940;2024-03-02T01:30:54;100013.48;;;7.97;100.00
57900;BME280;60605;53.716;19.940;2024-03-02T01:35:58;100015.90;;;7.96;100.00
57900;BME280;60605;53.716;19.940;2024-03-02T01:41:01;100010.48;;;7.95;100.00
57900;BME280;60605;53.716;19.940;2024-03-02T01:46:05;100011.10;;;7.94;100.00
57900;BME280;60605;53.716;19.940;2024-03-02T01:51:09;100021.48;;;7.93;100.00
57900;BME280;60605;53.716;19.940;2024-03-02T01:56:13;100020.65;;;7.90;100.00
57900;BME280;60605;53.716;19.940;2024-03-02T02:01:16;100022.73;;;7.89;100.00
57900;BME280;60605;53.716;19.940;2024-03-02T02:06:20;100023.42;;;7.87;100.00
57900;BME280;60605;53.716;19.940;2024-03-02T02:11:25;100018.85;;;7.85;100.00
57900;BME280;60605;53.716;19.940;2024-03-02T02:16:28;100013.54;;;7.83;100.00
57900;BME280;60605;53.716;19.940;2024-03-02T02:21:31;100009.98;;;7.77;100.00
57900;BME280;60605;53.716;19.940;2024-03-02T02:26:35;100000.47;;;7.71;100.00
57900;BME280;60605;53.716;19.940;2024-03-02T02:31:42;99992.45;;;7.63;100.00
57900;BME280;60605;53.716;19.940;2024-03-02T02:36:45;99984.11;;;7.56;100.00
57900;BME280;60605;53.716;19.940;2024-03-02T02:41:49;99977.38;;;7.48;100.00
57900;BME280;60605;53.716;19.940;2024-03-02T02:46:53;99979.98;;;7.41;100.00
57900;BME280;60605;53.716;19.940;2024-03-02T02:51:56;99988.25;;;7.36;100.00
57900;BME280;60605;53.716;19.940;2024-03-02T02:56:59;99985.58;;;7.30;100.00
57900;BME280;60605;53.716;19.940;2024-03-02T03:02:03;99980.52;;;7.23;100.00
57900;BME280;60605;53.716;19.940;2024-03-02T03:07:06;99983.45;;;7.18;100.00
57900;BME280;60605;53.716;19.940;2024-03-02T03:12:09;99986.76;;;7.13;100.00
57900;BME280;60605;53.716;19.940;2024-03-02T03:17:13;99995.24;;;7.08;100.00
57900;BME280;60605;53.716;19.940;2024-03-02T03:22:17;99999.22;;;7.01;100.00
57900;BME280;60605;53.716;19.940;2024-03-02T03:27:20;100002.69;;;6.94;100.00
57900;BME280;60605;53.716;19.940;2024-03-02T03:32:24;100004.30;;;6.88;100.00
57900;BME280;60605;53.716;19.940;2024-03-02T03:37:28;99998.89;;;6.87;100.00
57900;BME280;60605;53.716;19.940;2024-03-02T03:42:37;99994.92;;;6.92;100.00
57900;BME280;60605;53.716;19.940;2024-03-02T03:47:42;99987.70;;;6.97;100.00
57900;BME280;60605;53.716;19.940;2024-03-02T03:52:46;99990.38;;;6.99;100.00
57900;BME280;60605;53.716;19.940;2024-03-02T03:57:50;99986.31;;;7.02;100.00
57900;BME280;60605;53.716;19.940;2024-03-02T04:02:53;99986.11;;;7.06;100.00
57900;BME280;60605;53.716;19.940;2024-03-02T04:07:56;99989.83;;;7.10;100.00
57900;BME280;60605;53.716;19.940;2024-03-02T04:12:59;99984.08;;;7.13;100.00
57900;BME280;60605;53.716;19.940;2024-03-02T04:18:03;99987.70;;;7.14;100.00
57900;BME280;60605;53.716;19.940;2024-03-02T04:23:07;99998.80;;;7.15;100.00
57900;BME280;60605;53.716;19.940;2024-03-02T04:28:10;100001.16;;;7.19;100.00
57900;BME280;60605;53.716;19.940;2024-03-02T04:33:15;100005.81;;;7.22;100.00
57900;BME280;60605;53.716;19.940;2024-03-02T04:38:19;99997.80;;;7.25;100.00
57900;BME280;60605;53.716;19.940;2024-03-02T04:43:22;100001.23;;;7.26;100.00
57900;BME280;60605;53.716;19.940;2024-03-02T04:48:25;100003.98;;;7.27;100.00
57900;BME280;60605;53.716;19.940;2024-03-02T04:53:29;100006.95;;;7.28;100.00
57900;BME280;60605;53.716;19.940;2024-03-02T04:58:32;100011.75;;;7.30;100.00
57900;BME280;60605;53.716;19.940;2024-03-02T05:03:35;100009.11;;;7.29;100.00
57900;BME280;60605;53.716;19.940;2024-03-02T05:08:39;100016.06;;;7.29;100.00
57900;BME280;60605;53.716;19.940;2024-03-02T05:13:42;100017.45;;;7.29;100.00
57900;BME280;60605;53.716;19.940;2024-03-02T05:18:45;100021.17;;;7.29;100.00
57900;BME280;60605;53.716;19.940;2024-03-02T05:23:49;100022.05;;;7.29;100.00
57900;BME280;60605;53.716;19.940;2024-03-02T05:28:52;100019.12;;;7.29;100.00
57900;BME280;60605;53.716;19.940;2024-03-02T05:33:56;100026.22;;;7.27;100.00
57900;BME280;60605;53.716;19.940;2024-03-02T05:39:00;100023.58;;;7.24;100.00
57900;BME280;60605;53.716;19.940;2024-03-02T05:44:04;100026.05;;;7.23;100.00
57900;BME280;60605;53.716;19.940;2024-03-02T05:49:08;100029.18;;;7.21;100.00
57900;BME280;60605;53.716;19.940;2024-03-02T05:54:13;100029.48;;;7.20;100.00
57900;BME280;60605;53.716;19.940;2024-03-02T05:59:16;100024.10;;;7.17;100.00
57900;BME280;60605;53.716;19.940;2024-03-02T06:04:20;100022.27;;;7.13;100.00
57900;BME280;60605;53.716;19.940;2024-03-02T06:09:23;100031.69;;;7.11;100.00
57900;BME280;60605;53.716;19.940;2024-03-02T06:14:28;100037.20;;;7.11;100.00
57900;BME280;60605;53.716;19.940;2024-03-02T06:19:31;100036.98;;;7.12;100.00
57900;BME280;60605;53.716;19.940;2024-03-02T06:24:36;100041.25;;;7.13;100.00
57900;BME280;60605;53.716;19.940;2024-03-02T06:29:39;100045.15;;;7.15;100.00
57900;BME280;60605;53.716;19.940;2024-03-02T06:34:42;100054.23;;;7.20;100.00
57900;BME280;60605;53.716;19.940;2024-03-02T06:39:46;100067.23;;;7.23;100.00
57900;BME280;60605;53.716;19.940;2024-03-02T06:44:49;100068.64;;;7.27;100.00
57900;BME280;60605;53.716;19.940;2024-03-02T06:49:53;100081.17;;;7.32;100.00
57900;BME280;60605;53.716;19.940;2024-03-02T06:54:57;100078.21;;;7.37;100.00
57900;BME280;60605;53.716;19.940;2024-03-02T07:00:00;100074.13;;;7.43;100.00
57900;BME280;60605;53.716;19.940;2024-03-02T07:05:06;100080.65;;;7.47;100.00
57900;BME280;60605;53.716;19.940;2024-03-02T07:10:10;100080.86;;;7.51;100.00
57900;BME280;60605;53.716;19.940;2024-03-02T07:15:14;100082.27;;;7.53;100.00
57900;BME280;60605;53.716;19.940;2024-03-02T07:20:36;100086.79;;;7.56;100.00
57900;BME280;60605;53.716;19.940;2024-03-02T07:25:42;100094.44;;;7.58;100.00
57900;BME280;60605;53.716;19.940;2024-03-02T07:31:04;100085.48;;;7.63;100.00
57900;BME280;60605;53.716;19.940;2024-03-02T07:36:07;100090.13;;;7.68;100.00
57900;BME280;60605;53.716;19.940;2024-03-02T07:41:12;100089.73;;;7.76;100.00
57900;BME280;60605;53.716;19.940;2024-03-02T07:46:15;100089.64;;;7.85;100.00
57900;BME280;60605;53.716;19.940;2024-03-02T07:51:19;100086.85;;;7.92;100.00
57900;BME280;60605;53.716;19.940;2024-03-02T07:56:23;100089.16;;;8.03;100.00
57900;BME280;60605;53.716;19.940;2024-03-02T08:01:28;100094.10;;;8.09;100.00
57900;BME280;60605;53.716;19.940;2024-03-02T08:06:33;100096.58;;;8.12;100.00
57900;BME280;60605;53.716;19.940;2024-03-02T08:11:38;100101.23;;;8.15;100.00
57900;BME280;60605;53.716;19.940;2024-03-02T08:16:42;100098.13;;;8.22;100.00
57900;BME280;60605;53.716;19.940;2024-03-02T08:21:45;100100.45;;;8.24;100.00
57900;BME280;60605;53.716;19.940;2024-03-02T08:26:48;100101.73;;;8.23;100.00
57900;BME280;60605;53.716;19.940;2024-03-02T08:31:53;100102.86;;;8.26;100.00
57900;BME280;60605;53.716;19.940;2024-03-02T08:36:56;100109.39;;;8.34;100.00
57900;BME280;60605;53.716;19.940;2024-03-02T08:42:00;100110.80;;;8.46;100.00
57900;BME280;60605;53.716;19.940;2024-03-02T08:47:03;100110.56;;;8.58;100.00
57900;BME280;60605;53.716;19.940;2024-03-02T08:52:07;100115.95;;;8.64;100.00
57900;BME280;60605;53.716;19.940;2024-03-02T08:57:11;100117.52;;;8.71;100.00
57900;BME280;60605;53.716;19.940;2024-03-02T09:02:14;100121.64;;;8.83;99.98
57900;BME280;60605;53.716;19.940;2024-03-02T09:07:19;100126.96;;;8.99;99.51
57900;BME280;60605;53.716;19.940;2024-03-02T09:12:22;100132.93;;;9.07;98.09
57900;BME280;60605;53.716;19.940;2024-03-02T09:17:26;100136.09;;;9.15;97.66
57900;BME280;60605;53.716;19.940;2024-03-02T09:22:30;100131.98;;;9.17;96.86
57900;BME280;60605;53.716;19.940;2024-03-02T09:27:37;100132.22;;;9.25;97.65
57900;BME280;60605;53.716;19.940;2024-03-02T09:32:41;100131.83;;;9.42;96.81
57900;BME280;60605;53.716;19.940;2024-03-02T09:37:45;100130.90;;;9.56;95.35
57900;BME280;60605;53.716;19.940;2024-03-02T09:42:49;100130.73;;;9.69;94.36
57900;BME280;60605;53.716;19.940;2024-03-02T09:47:56;100125.80;;;9.81;93.99
57900;BME280;60605;53.716;19.940;2024-03-02T09:53:00;100129.52;;;9.95;93.49
57900;BME280;60605;53.716;19.940;2024-03-02T09:58:03;100130.69;;;10.00;92.37
57900;BME280;60605;53.716;19.940;2024-03-02T10:03:12;100130.04;;;10.06;92.33
57900;BME280;60605;53.716;19.940;2024-03-02T10:08:16;100133.36;;;10.14;91.72
57900;BME280;60605;53.716;19.940;2024-03-02T10:13:25;100126.20;;;10.28;90.80
57900;BME280;60605;53.716;19.940;2024-03-02T10:18:28;100129.60;;;10.37;90.07
57900;BME280;60605;53.716;19.940;2024-03-02T10:23:32;100128.58;;;10.46;89.64
57900;BME280;60605;53.716;19.940;2024-03-02T10:28:36;100132.10;;;10.45;88.82
57900;BME280;60605;53.716;19.940;2024-03-02T10:33:48;100130.59;;;10.51;88.36
57900;BME280;60605;53.716;19.940;2024-03-02T10:38:52;100126.49;;;10.69;88.97
57900;BME280;60605;53.716;19.940;2024-03-02T10:43:59;100121.86;;;10.98;87.24
57900;BME280;60605;53.716;19.940;2024-03-02T10:49:05;100123.63;;;11.10;85.45
57900;BME280;60605;53.716;19.940;2024-03-02T10:54:11;100117.92;;;11.20;84.65
57900;BME280;60605;53.716;19.940;2024-03-02T10:59:34;100110.52;;;11.30;84.17
57900;BME280;60605;53.716;19.940;2024-03-02T11:04:40;100106.19;;;11.28;83.72
57900;BME280;60605;53.716;19.940;2024-03-02T11:09:55;100106.77;;;11.39;84.23
57900;BME280;60605;53.716;19.940;2024-03-02T11:15:05;100099.36;;;11.56;83.69
57900;BME280;60605;53.716;19.940;2024-03-02T11:20:14;100106.13;;;11.70;83.39
57900;BME280;60605;53.716;19.940;2024-03-02T11:25:26;100102.65;;;11.71;82.72
57900;BME280;60605;53.716;19.940;2024-03-02T11:35:41;100097.83;;;11.57;83.41
57900;BME280;60605;53.716;19.940;2024-03-02T11:40:52;100095.15;;;11.50;83.06
57900;BME280;60605;53.716;19.940;2024-03-02T11:46:04;100095.66;;;11.37;83.17
57900;BME280;60605;53.716;19.940;2024-03-02T11:51:11;100090.05;;;11.26;83.58
57900;BME280;60605;53.716;19.940;2024-03-02T11:56:15;100083.35;;;11.20;83.90
57900;BME280;60605;53.716;19.940;2024-03-02T12:01:20;100075.64;;;11.21;84.59
57900;BME280;60605;53.716;19.940;2024-03-02T12:06:24;100071.01;;;11.27;84.47
57900;BME280;60605;53.716;19.940;2024-03-02T12:11:28;100063.52;;;11.24;83.51
57900;BME280;60605;53.716;19.940;2024-03-02T12:16:31;100061.18;;;11.17;83.68
57900;BME280;60605;53.716;19.940;2024-03-02T12:21:35;100061.42;;;11.18;84.40
57900;BME280;60605;53.716;19.940;2024-03-02T12:26:41;100063.62;;;11.23;84.14
57900;BME280;60605;53.716;19.940;2024-03-02T12:31:45;100063.84;;;11.29;84.25
57900;BME280;60605;53.716;19.940;2024-03-02T12:36:51;100070.77;;;11.36;83.95
57900;BME280;60605;53.716;19.940;2024-03-02T12:41:56;100065.02;;;11.40;83.97
57900;BME280;60605;53.716;19.940;2024-03-02T12:46:59;100057.45;;;11.50;84.37
57900;BME280;60605;53.716;19.940;2024-03-02T12:52:04;100061.50;;;11.64;84.16
57900;BME280;60605;53.716;19.940;2024-03-02T12:57:08;100066.05;;;11.75;83.68
57900;BME280;60605;53.716;19.940;2024-03-02T13:02:20;100062.90;;;11.74;82.50
57900;BME280;60605;53.716;19.940;2024-03-02T13:07:25;100057.58;;;11.64;82.64
57900;BME280;60605;53.716;19.940;2024-03-02T13:12:30;100063.39;;;11.61;82.82
57900;BME280;60605;53.716;19.940;2024-03-02T13:17:35;100062.84;;;11.48;82.42
57900;BME280;60605;53.716;19.940;2024-03-02T13:22:40;100067.20;;;11.39;83.17
57900;BME280;60605;53.716;19.940;2024-03-02T13:27:44;100071.39;;;11.32;83.24
57900;BME280;60605;53.716;19.940;2024-03-02T13:32:48;100075.72;;;11.23;83.92
57900;BME280;60605;53.716;19.940;2024-03-02T13:37:51;100072.73;;;11.21;84.37
57900;BME280;60605;53.716;19.940;2024-03-02T13:42:55;100065.16;;;11.17;84.63
57900;BME280;60605;53.716;19.940;2024-03-02T13:48:00;100066.23;;;11.13;85.09
57900;BME280;60605;53.716;19.940;2024-03-02T13:53:03;100065.69;;;11.13;85.63
57900;BME280;60605;53.716;19.940;2024-03-02T13:58:07;100065.52;;;11.15;85.81
57900;BME280;60605;53.716;19.940;2024-03-02T14:03:12;100064.42;;;11.17;86.07
57900;BME280;60605;53.716;19.940;2024-03-02T14:08:16;100067.34;;;11.18;86.10
57900;BME280;60605;53.716;19.940;2024-03-02T14:13:21;100070.93;;;11.18;86.40
57900;BME280;60605;53.716;19.940;2024-03-02T14:18:25;100069.26;;;11.15;86.56
57900;BME280;60605;53.716;19.940;2024-03-02T14:23:29;100070.03;;;11.10;86.47
57900;BME280;60605;53.716;19.940;2024-03-02T14:28:32;100062.40;;;11.01;86.60
57900;BME280;60605;53.716;19.940;2024-03-02T14:33:53;100064.85;;;10.93;87.37
57900;BME280;60605;53.716;19.940;2024-03-02T14:38:58;100063.18;;;10.88;88.29
57900;BME280;60605;53.716;19.940;2024-03-02T14:44:03;100062.00;;;10.82;88.75
57900;BME280;60605;53.716;19.940;2024-03-02T14:49:06;100064.70;;;10.77;89.22
57900;BME280;60605;53.716;19.940;2024-03-02T14:54:10;100061.95;;;10.73;89.71
57900;BME280;60605;53.716;19.940;2024-03-02T14:59:14;100056.56;;;10.68;90.11
57900;BME280;60605;53.716;19.940;2024-03-02T15:04:18;100054.41;;;10.62;90.35
57900;BME280;60605;53.716;19.940;2024-03-02T15:09:24;100049.95;;;10.61;90.85
57900;BME280;60605;53.716;19.940;2024-03-02T15:14:29;100046.09;;;10.58;91.02
57900;BME280;60605;53.716;19.940;2024-03-02T15:19:33;100049.13;;;10.53;91.27
57900;BME280;60605;53.716;19.940;2024-03-02T15:24:38;100053.64;;;10.46;91.59
57900;BME280;60605;53.716;19.940;2024-03-02T15:29:42;100056.23;;;10.38;92.07
57900;BME280;60605;53.716;19.940;2024-03-02T15:34:45;100056.98;;;10.31;92.49
57900;BME280;60605;53.716;19.940;2024-03-02T15:39:49;100064.20;;;10.25;93.07
57900;BME280;60605;53.716;19.940;2024-03-02T15:44:53;100063.96;;;10.19;93.68
57900;BME280;60605;53.716;19.940;2024-03-02T15:49:56;100059.83;;;10.12;94.26
57900;BME280;60605;53.716;19.940;2024-03-02T15:55:00;100056.18;;;10.06;94.74
57900;BME280;60605;53.716;19.940;2024-03-02T16:00:05;100057.92;;;10.01;95.18
57900;BME280;60605;53.716;19.940;2024-03-02T16:05:10;100064.31;;;9.96;95.57
57900;BME280;60605;53.716;19.940;2024-03-02T16:10:14;100067.42;;;9.92;96.11
57900;BME280;60605;53.716;19.940;2024-03-02T16:15:17;100065.36;;;9.87;96.47
57900;BME280;60605;53.716;19.940;2024-03-02T16:20:23;100063.75;;;9.84;96.93
57900;BME280;60605;53.716;19.940;2024-03-02T16:25:26;100066.96;;;9.80;97.23
57900;BME280;60605;53.716;19.940;2024-03-02T16:30:30;100072.94;;;9.76;97.55
57900;BME280;60605;53.716;19.940;2024-03-02T16:35:34;100076.58;;;9.72;97.88
57900;BME280;60605;53.716;19.940;2024-03-02T16:40:39;100079.34;;;9.67;98.20
57900;BME280;60605;53.716;19.940;2024-03-02T16:45:43;100079.15;;;9.62;98.42
57900;BME280;60605;53.716;19.940;2024-03-02T16:50:50;100078.92;;;9.57;98.98
57900;BME280;60605;53.716;19.940;2024-03-02T16:55:59;100085.85;;;9.52;99.03
57900;BME280;60605;53.716;19.940;2024-03-02T17:01:03;100090.08;;;9.47;99.50
57900;BME280;60605;53.716;19.940;2024-03-02T17:06:08;100090.45;;;9.44;99.89
57900;BME280;60605;53.716;19.940;2024-03-02T17:11:12;100095.12;;;9.42;99.96
57900;BME280;60605;53.716;19.940;2024-03-02T17:16:16;100097.08;;;9.40;99.88
57900;BME280;60605;53.716;19.940;2024-03-02T17:21:21;100094.05;;;9.38;99.81
57900;BME280;60605;53.716;19.940;2024-03-02T17:26:26;100097.89;;;9.35;100.00
57900;BME280;60605;53.716;19.940;2024-03-02T17:31:30;100093.80;;;9.33;100.00
57900;BME280;60605;53.716;19.940;2024-03-02T17:36:34;100093.16;;;9.31;100.00
57900;BME280;60605;53.716;19.940;2024-03-02T17:41:38;100092.75;;;9.28;100.00
57900;BME280;60605;53.716;19.940;2024-03-02T17:46:42;100094.36;;;9.26;99.93
57900;BME280;60605;53.716;19.940;2024-03-02T17:51:47;100096.66;;;9.24;99.43
57900;BME280;60605;53.716;19.940;2024-03-02T17:56:51;100103.98;;;9.22;98.98
57900;BME280;60605;53.716;19.940;2024-03-02T18:01:55;100107.91;;;9.21;98.91
57900;BME280;60605;53.716;19.940;2024-03-02T18:06:59;100110.54;;;9.17;99.27
57900;BME280;60605;53.716;19.940;2024-03-02T18:12:03;100114.54;;;9.13;99.68
57900;BME280;60605;53.716;19.940;2024-03-02T18:17:10;100121.96;;;9.08;99.99
57900;BME280;60605;53.716;19.940;2024-03-02T18:22:14;100128.10;;;9.03;100.00
57900;BME280;60605;53.716;19.940;2024-03-02T18:27:18;100130.45;;;8.99;100.00
57900;BME280;60605;53.716;19.940;2024-03-02T18:32:22;100127.35;;;8.94;100.00
57900;BME280;60605;53.716;19.940;2024-03-02T18:37:27;100126.02;;;8.89;100.00
57900;BME280;60605;53.716;19.940;2024-03-02T18:42:32;100128.52;;;8.84;99.99
57900;BME280;60605;53.716;19.940;2024-03-02T18:47:36;100131.55;;;8.78;100.00
57900;BME280;60605;53.716;19.940;2024-03-02T18:52:44;100131.64;;;8.72;100.00
57900;BME280;60605;53.716;19.940;2024-03-02T18:57:48;100127.48;;;8.67;100.00
57900;BME280;60605;53.716;19.940;2024-03-02T19:02:52;100125.81;;;8.62;100.00
57900;BME280;60605;53.716;19.940;2024-03-02T19:07:56;100123.80;;;8.57;100.00
57900;BME280;60605;53.716;19.940;2024-03-02T19:13:02;100124.10;;;8.52;100.00
57900;BME280;60605;53.716;19.940;2024-03-02T19:18:09;100117.81;;;8.47;100.00
57900;BME280;60605;53.716;19.940;2024-03-02T19:23:14;100115.98;;;8.42;100.00
57900;BME280;60605;53.716;19.940;2024-03-02T19:28:30;100119.52;;;8.37;100.00
57900;BME280;60605;53.716;19.940;2024-03-02T19:33:33;100121.13;;;8.31;100.00
57900;BME280;60605;53.716;19.940;2024-03-02T19:38:37;100129.86;;;8.25;100.00
57900;BME280;60605;53.716;19.940;2024-03-02T19:43:43;100132.50;;;8.17;100.00
57900;BME280;60605;53.716;19.940;2024-03-02T19:48:47;100137.18;;;8.11;100.00
57900;BME280;60605;53.716;19.940;2024-03-02T19:53:50;100137.66;;;8.04;100.00
57900;BME280;60605;53.716;19.940;2024-03-02T19:58:54;100136.11;;;7.98;100.00
57900;BME280;60605;53.716;19.940;2024-03-02T20:03:58;100132.48;;;7.93;100.00
57900;BME280;60605;53.716;19.940;2024-03-02T20:09:02;100133.18;;;7.89;100.00
57900;BME280;60605;53.716;19.940;2024-03-02T20:14:09;100130.46;;;7.86;100.00
57900;BME280;60605;53.716;19.940;2024-03-02T20:19:15;100135.08;;;7.82;100.00
57900;BME280;60605;53.716;19.940;2024-03-02T20:24:24;100132.45;;;7.79;100.00
57900;BME280;60605;53.716;19.940;2024-03-02T20:29:28;100131.81;;;7.77;100.00
57900;BME280;60605;53.716;19.940;2024-03-02T20:34:32;100132.56;;;7.74;100.00
57900;BME280;60605;53.716;19.940;2024-03-02T20:39:36;100135.09;;;7.72;100.00
57900;BME280;60605;53.716;19.940;2024-03-02T20:44:40;100134.48;;;7.69;100.00
57900;BME280;60605;53.716;19.940;2024-03-02T20:49:44;100138.48;;;7.66;100.00
57900;BME280;60605;53.716;19.940;2024-03-02T20:54:48;100133.62;;;7.63;100.00
57900;BME280;60605;53.716;19.940;2024-03-02T20:59:51;100130.71;;;7.60;100.00
57900;BME280;60605;53.716;19.940;2024-03-02T21:04:55;100132.23;;;7.57;100.00
57900;BME280;60605;53.716;19.940;2024-03-02T21:10:00;100133.23;;;7.53;100.00
57900;BME280;60605;53.716;19.940;2024-03-02T21:15:05;100128.58;;;7.50;100.00
57900;BME280;60605;53.716;19.940;2024-03-02T21:20:10;100130.65;;;7.46;100.00
57900;BME280;60605;53.716;19.940;2024-03-02T21:25:14;100129.56;;;7.45;100.00
57900;BME280;60605;53.716;19.940;2024-03-02T21:30:19;100128.30;;;7.43;100.00
57900;BME280;60605;53.716;19.940;2024-03-02T21:35:24;100124.35;;;7.42;100.00
57900;BME280;60605;53.716;19.940;2024-03-02T21:40:31;100122.62;;;7.41;100.00
57900;BME280;60605;53.716;19.940;2024-03-02T21:45:35;100121.05;;;7.41;100.00
57900;BME280;60605;53.716;19.940;2024-03-02T21:50:39;100121.45;;;7.40;100.00
57900;BME280;60605;53.716;19.940;2024-03-02T21:55:42;100119.31;;;7.40;100.00
57900;BME280;60605;53.716;19.940;2024-03-02T22:00:46;100122.58;;;7.40;100.00
57900;BME280;60605;53.716;19.940;2024-03-02T22:05:50;100126.92;;;7.39;100.00
57900;BME280;60605;53.716;19.940;2024-03-02T22:10:54;100120.89;;;7.37;100.00
57900;BME280;60605;53.716;19.940;2024-03-02T22:15:58;100116.91;;;7.33;100.00
57900;BME280;60605;53.716;19.940;2024-03-02T22:21:02;100119.40;;;7.30;100.00
57900;BME280;60605;53.716;19.940;2024-03-02T22:26:07;100120.45;;;7.26;100.00
57900;BME280;60605;53.716;19.940;2024-03-02T22:31:11;100117.25;;;7.22;100.00
57900;BME280;60605;53.716;19.940;2024-03-02T22:36:15;100114.48;;;7.19;100.00
57900;BME280;60605;53.716;19.940;2024-03-02T22:41:20;100110.18;;;7.15;100.00
57900;BME280;60605;53.716;19.940;2024-03-02T22:46:24;100106.66;;;7.11;100.00
57900;BME280;60605;53.716;19.940;2024-03-02T22:51:30;100109.89;;;7.08;100.00
57900;BME280;60605;53.716;19.940;2024-03-02T22:56:34;100109.61;;;7.06;100.00
57900;BME280;60605;53.716;19.940;2024-03-02T23:01:38;100110.58;;;7.03;100.00
57900;BME280;60605;53.716;19.940;2024-03-02T23:06:45;100111.04;;;6.99;100.00
57900;BME280;60605;53.716;19.940;2024-03-02T23:11:50;100108.84;;;6.96;100.00
57900;BME280;60605;53.716;19.940;2024-03-02T23:16:54;100104.62;;;6.94;100.00
57900;BME280;60605;53.716;19.940;2024-03-02T23:21:58;100103.44;;;6.91;100.00
57900;BME280;60605;53.716;19.940;2024-03-02T23:27:02;100105.73;;;6.89;100.00
57900;BME280;60605;53.716;19.940;2024-03-02T23:32:06;100098.34;;;6.86;100.00
57900;BME280;60605;53.716;19.940;2024-03-02T23:37:10;100096.03;;;6.85;100.00
57900;BME280;60605;53.716;19.940;2024-03-02T23:42:13;100091.46;;;6.82;100.00
57900;BME280;60605;53.716;19.940;2024-03-02T23:47:17;100090.02;;;6.80;100.00
57900;BME280;60605;53.716;19.940;2024-03-02T23:52:21;100092.56;;;6.80;100.00
57900;BME280;60605;53.716;19.940;2024-03-02T23:57:25;100092.76;;;6.80;100.00
